Aviation Digital Data Service (ADDS)

Output produced by METARs form (0647 UTC 17 January 2017)
found at http://aviationweather.gov/adds/metars/
 
KGNV 170549Z 1706/1806 00000KT P6SM SCT060 BKN250 
     FM171000 00000KT 1SM BR SCT002 BKN250 
     TEMPO 1710/1713 1/4SM FG BKN002 
     FM171400 18006KT P6SM SCT015 SCT250 
     FM171900 21007KT P6SM SCT040 BKN250 
     FM180100 18003KT P6SM SCT050 BKN250